createdAt,value
2018-07-13T00:00:31.790Z,102031.55
2018-07-13T00:03:34.012Z,102025.79
2018-07-13T00:06:36.021Z,102027.01
2018-07-13T00:09:38.183Z,102028.13
2018-07-13T00:12:41.387Z,102027.89
2018-07-13T00:15:55.289Z,102030.69
2018-07-13T00:18:57.379Z,102032.80
2018-07-13T00:21:59.476Z,102038.75
2018-07-13T00:25:01.645Z,102047.67
2018-07-13T00:28:03.667Z,102049.24
2018-07-13T00:31:05.780Z,102048.86
2018-07-13T00:34:07.876Z,102046.40
2018-07-13T00:37:11.640Z,102049.97
2018-07-13T00:40:13.626Z,102062.93
2018-07-13T00:43:15.765Z,102069.07
2018-07-13T00:46:18.127Z,102071.29
2018-07-13T00:49:20.152Z,102078.53
2018-07-13T00:52:22.438Z,102085.40
2018-07-13T00:55:25.519Z,102085.31
2018-07-13T00:58:27.613Z,102083.50
2018-07-13T01:01:29.584Z,102081.66
2018-07-13T01:04:31.692Z,102078.09
2018-07-13T01:07:33.815Z,102082.78
2018-07-13T01:10:36.020Z,102080.01
2018-07-13T01:13:40.279Z,102079.65
2018-07-13T01:16:42.373Z,102079.31
2018-07-13T01:19:44.703Z,102074.95
2018-07-13T01:22:46.803Z,102070.91
2018-07-13T01:25:48.881Z,102069.73
2018-07-13T01:28:51.028Z,102063.89
2018-07-13T01:31:53.116Z,102060.36
2018-07-13T01:34:55.319Z,102058.56
2018-07-13T01:37:57.439Z,102055.83
2018-07-13T01:40:59.455Z,102061.92
2018-07-13T01:44:01.459Z,102058.24
2018-07-13T01:47:03.590Z,102056.91
2018-07-13T01:50:06.816Z,102056.98
2018-07-13T01:53:08.916Z,102067.74
2018-07-13T01:56:11.764Z,102069.93
2018-07-13T01:59:13.926Z,102079.37
2018-07-13T02:02:15.980Z,102080.94
2018-07-13T02:05:18.112Z,102086.70
2018-07-13T02:08:20.168Z,102085.92
2018-07-13T02:11:22.334Z,102084.27
2018-07-13T02:14:24.292Z,102081.69
2018-07-13T02:17:26.413Z,102086.01
2018-07-13T02:20:28.480Z,102083.17
2018-07-13T02:26:39.502Z,102090.87
2018-07-13T02:29:42.511Z,102094.38
2018-07-13T02:32:44.612Z,102094.52
2018-07-13T02:35:46.686Z,102092.55
2018-07-13T02:38:48.871Z,102089.29
2018-07-13T02:41:51.637Z,102092.81
2018-07-13T02:44:53.887Z,102097.67
2018-07-13T02:47:57.009Z,102096.05
2018-07-13T02:50:59.064Z,102097.94
2018-07-13T02:54:01.228Z,102100.96
2018-07-13T02:57:04.548Z,102109.94
2018-07-13T03:00:06.700Z,102107.94
2018-07-13T03:03:08.781Z,102108.69
2018-07-13T03:06:11.803Z,102114.95
2018-07-13T03:09:14.147Z,102117.85
2018-07-13T03:12:16.260Z,102120.35
2018-07-13T03:15:18.301Z,102125.25
2018-07-13T03:18:20.526Z,102129.95
2018-07-13T03:21:22.657Z,102130.13
2018-07-13T03:24:24.701Z,102129.08
2018-07-13T03:27:26.772Z,102131.40
2018-07-13T03:30:29.852Z,102132.37
2018-07-13T03:33:31.971Z,102138.33
2018-07-13T03:36:36.095Z,102140.32
2018-07-13T03:39:38.131Z,102140.98
2018-07-13T03:42:41.196Z,102141.74
2018-07-13T03:45:43.280Z,102141.78
2018-07-13T03:48:45.349Z,102143.89
2018-07-13T03:51:47.392Z,102150.25
2018-07-13T03:54:49.516Z,102147.89
2018-07-13T03:57:51.564Z,102150.01
2018-07-13T04:00:53.628Z,102148.23
2018-07-13T04:03:56.741Z,102146.34
2018-07-13T04:06:58.933Z,102142.81
2018-07-13T04:10:00.987Z,102137.10
2018-07-13T04:13:03.056Z,102134.00
2018-07-13T04:16:05.307Z,102133.79
2018-07-13T04:19:07.374Z,102136.27
2018-07-13T04:22:09.560Z,102133.49
2018-07-13T04:25:12.757Z,102129.02
2018-07-13T04:28:15.596Z,102131.69
2018-07-13T04:31:17.599Z,102133.75
2018-07-13T04:34:19.769Z,102131.62
2018-07-13T04:37:21.669Z,102123.23
2018-07-13T04:40:23.722Z,102131.48
2018-07-13T04:43:26.218Z,102130.12
2018-07-13T04:46:28.327Z,102126.15
2018-07-13T04:49:30.544Z,102125.58
2018-07-13T04:52:32.716Z,102129.87
2018-07-13T04:55:34.869Z,102132.09
2018-07-13T04:58:38.126Z,102131.19
2018-07-13T05:01:40.339Z,102132.68
2018-07-13T05:04:43.247Z,102134.40
2018-07-13T05:07:45.337Z,102128.38
2018-07-13T05:10:47.499Z,102131.93
2018-07-13T05:13:49.743Z,102134.41
2018-07-13T05:16:51.921Z,102134.98
2018-07-13T05:19:54.112Z,102133.22
2018-07-13T05:22:56.433Z,102133.95
2018-07-13T05:25:58.613Z,102133.30
2018-07-13T05:29:00.887Z,102134.98
2018-07-13T05:32:02.941Z,102141.73
2018-07-13T05:35:05.197Z,102143.34
2018-07-13T05:38:07.471Z,102141.39
2018-07-13T05:41:10.049Z,102141.84
2018-07-13T05:44:12.662Z,102149.85
2018-07-13T05:47:14.820Z,102151.77
2018-07-13T05:50:17.127Z,102150.95
2018-07-13T05:53:19.701Z,102156.48
2018-07-13T05:56:21.764Z,102152.37
2018-07-13T05:59:27.907Z,102153.74
2018-07-13T06:02:30.088Z,102152.37
2018-07-13T06:05:32.183Z,102150.16
2018-07-13T06:08:34.363Z,102153.34
2018-07-13T06:11:36.789Z,102153.52
2018-07-13T06:14:38.767Z,102157.38
2018-07-13T06:17:42.536Z,102156.36
2018-07-13T06:20:44.577Z,102154.44
2018-07-13T06:23:46.744Z,102156.97
2018-07-13T06:26:48.772Z,102154.55
2018-07-13T06:29:51.096Z,102155.69
2018-07-13T06:32:53.527Z,102157.67
2018-07-13T06:35:55.652Z,102158.40
2018-07-13T06:38:57.859Z,102157.91
2018-07-13T06:42:00.015Z,102161.91
2018-07-13T06:45:02.193Z,102158.36
2018-07-13T06:48:04.580Z,102157.34
2018-07-13T06:51:07.823Z,102158.94
2018-07-13T06:54:10.564Z,102157.59
2018-07-13T06:57:22.761Z,102158.52
2018-07-13T07:00:58.238Z,102161.44
2018-07-13T07:04:32.631Z,102160.86
2018-07-13T07:07:34.820Z,102162.88
2018-07-13T07:10:36.985Z,102164.16
2018-07-13T07:13:40.918Z,102165.02
2018-07-13T07:16:43.716Z,102162.64
2018-07-13T07:19:45.809Z,102160.75
2018-07-13T07:22:47.940Z,102156.23
2018-07-13T07:25:49.959Z,102155.26
2018-07-13T07:28:52.008Z,102160.15
2018-07-13T07:31:54.072Z,102159.62
2018-07-13T07:34:56.181Z,102154.06
2018-07-13T07:37:58.191Z,102157.94
2018-07-13T07:41:00.350Z,102155.48
2018-07-13T07:44:02.542Z,102156.64
2018-07-13T07:47:04.643Z,102154.40
2018-07-13T07:50:06.825Z,102147.66
2018-07-13T07:53:08.928Z,102142.05
2018-07-13T07:56:11.109Z,102144.11
2018-07-13T07:59:13.791Z,102143.71
2018-07-13T08:02:15.948Z,102135.20
2018-07-13T08:05:18.080Z,102137.98
2018-07-13T08:08:20.183Z,102132.69
2018-07-13T08:11:22.304Z,102132.88
2018-07-13T08:14:24.541Z,102131.92
2018-07-13T08:17:26.697Z,102133.10
2018-07-13T08:20:30.938Z,102134.25
2018-07-13T08:23:33.079Z,102129.43
2018-07-13T08:26:35.293Z,102127.71
2018-07-13T08:29:39.396Z,102119.44
2018-07-13T08:32:41.624Z,102116.03
2018-07-13T08:35:43.596Z,102116.25
2018-07-13T08:38:46.217Z,102111.77
2018-07-13T08:41:48.384Z,102111.09
2018-07-13T08:44:50.595Z,102102.27
2018-07-13T08:47:52.800Z,102105.07
2018-07-13T08:50:55.163Z,102106.85
2018-07-13T08:53:57.240Z,102108.09
2018-07-13T08:56:59.916Z,102105.36
2018-07-13T09:00:02.119Z,102109.67
2018-07-13T09:03:04.426Z,102114.31
2018-07-13T09:06:06.533Z,102108.44
2018-07-13T09:09:12.526Z,102108.67
2018-07-13T09:12:14.529Z,102106.80
2018-07-13T09:15:16.647Z,102104.74
2018-07-13T09:18:18.748Z,102105.43
2018-07-13T09:21:20.788Z,102103.61
2018-07-13T09:24:22.913Z,102104.45
2018-07-13T09:27:24.964Z,102102.68
2018-07-13T09:30:27.152Z,102096.65
2018-07-13T09:33:29.580Z,102086.07
2018-07-13T09:36:31.754Z,102091.27
2018-07-13T09:39:33.959Z,102086.80
2018-07-13T09:42:36.303Z,102087.03
2018-07-13T09:45:38.481Z,102083.39
2018-07-13T09:48:40.665Z,102080.65
2018-07-13T09:51:42.732Z,102083.39
2018-07-13T09:54:44.896Z,102076.17
2018-07-13T09:57:46.924Z,102088.77
2018-07-13T10:00:54.937Z,102090.32
2018-07-13T10:03:56.908Z,102081.58
2018-07-13T10:06:59.757Z,102087.89
2018-07-13T10:10:01.873Z,102087.80
2018-07-13T10:13:04.056Z,102093.06
2018-07-13T10:16:06.128Z,102087.73
2018-07-13T10:19:08.292Z,102084.80
2018-07-13T10:22:13.792Z,102078.64
2018-07-13T10:25:16.372Z,102073.73
2018-07-13T10:28:18.481Z,102068.87
2018-07-13T10:31:20.503Z,102075.25
2018-07-13T10:34:24.378Z,102068.60
2018-07-13T10:37:28.520Z,102068.86
2018-07-13T10:40:30.624Z,102061.74
2018-07-13T10:43:32.819Z,102068.08
2018-07-13T10:46:34.904Z,102062.35
2018-07-13T10:49:36.988Z,102051.88
2018-07-13T10:52:39.090Z,102061.66
2018-07-13T10:55:41.183Z,102055.71
2018-07-13T10:58:44.305Z,102063.67
2018-07-13T11:01:46.319Z,102049.10
2018-07-13T11:04:48.275Z,102053.26
2018-07-13T11:07:50.689Z,102055.58
2018-07-13T11:10:52.829Z,102048.31
2018-07-13T11:13:54.987Z,102045.85
2018-07-13T11:16:57.089Z,102040.94
2018-07-13T11:19:59.965Z,102042.24
2018-07-13T11:23:02.803Z,102039.10
2018-07-13T11:26:04.726Z,102033.00
2018-07-13T11:29:06.739Z,102022.91
2018-07-13T11:32:09.772Z,102020.75
2018-07-13T11:35:13.890Z,102021.11
2018-07-13T11:38:15.946Z,102015.04
2018-07-13T11:41:18.109Z,102011.13
2018-07-13T11:44:20.228Z,102009.91
2018-07-13T11:47:22.384Z,102005.51
2018-07-13T11:50:25.516Z,102007.45
2018-07-13T11:53:27.503Z,101999.55
2018-07-13T11:56:29.572Z,102000.09
2018-07-13T11:59:31.683Z,101996.39
2018-07-13T12:02:35.703Z,101991.42
2018-07-13T12:05:37.759Z,101986.15
2018-07-13T12:08:39.825Z,101988.16
2018-07-13T12:11:42.252Z,101982.82
2018-07-13T12:14:44.380Z,101988.53
2018-07-13T12:17:46.618Z,101979.55
2018-07-13T12:20:48.619Z,101975.89
2018-07-13T12:23:52.741Z,101971.81
2018-07-13T12:26:54.876Z,101967.09
2018-07-13T12:29:56.988Z,101964.15
2018-07-13T12:32:58.960Z,101966.47
2018-07-13T12:36:01.032Z,101963.44
2018-07-13T12:39:03.463Z,101959.32
2018-07-13T12:42:05.657Z,101952.91
2018-07-13T12:45:07.759Z,101950.44
2018-07-13T12:48:10.065Z,101944.82
2018-07-13T12:51:12.501Z,101938.80
2018-07-13T12:54:15.329Z,101938.84
2018-07-13T12:57:17.562Z,101942.99
2018-07-13T13:00:19.720Z,101939.54
2018-07-13T13:03:21.877Z,101939.03
2018-07-13T13:06:25.065Z,101939.29
2018-07-13T13:09:27.184Z,101935.00
2018-07-13T13:12:29.259Z,101937.12
2018-07-13T13:15:31.423Z,101941.74
2018-07-13T13:18:33.648Z,101940.09
2018-07-13T13:21:35.862Z,101939.34
2018-07-13T13:24:37.823Z,101937.31
2018-07-13T13:27:41.047Z,101934.68
2018-07-13T13:30:43.068Z,101927.96
2018-07-13T13:33:46.487Z,101920.82
2018-07-13T13:36:48.536Z,101926.68
2018-07-13T13:39:50.610Z,101926.54
2018-07-13T13:42:52.572Z,101920.85
2018-07-13T13:45:54.660Z,101920.89
2018-07-13T13:48:56.765Z,101923.15
2018-07-13T13:51:58.860Z,101924.88
2018-07-13T13:55:00.968Z,101926.49
2018-07-13T13:58:02.998Z,101928.37
2018-07-13T14:01:05.147Z,101929.07
2018-07-13T14:04:07.355Z,101926.27
2018-07-13T14:07:09.445Z,101921.62
2018-07-13T14:10:11.598Z,101928.08
2018-07-13T14:13:13.633Z,101922.36
2018-07-13T14:16:15.905Z,101926.88
2018-07-13T14:19:17.994Z,101918.86
2018-07-13T14:22:20.088Z,101917.00
2018-07-13T14:25:22.335Z,101917.38
2018-07-13T14:28:24.426Z,101915.34
2018-07-13T14:31:27.427Z,101914.76
2018-07-13T14:34:29.664Z,101908.48
2018-07-13T14:37:32.472Z,101909.34
2018-07-13T14:40:34.624Z,101905.87
2018-07-13T14:43:36.708Z,101911.27
2018-07-13T14:46:38.927Z,101906.38
2018-07-13T14:49:42.173Z,101904.52
2018-07-13T14:52:44.183Z,101900.42
2018-07-13T14:55:47.313Z,101896.21
2018-07-13T14:58:49.560Z,101882.94
2018-07-13T15:01:52.791Z,101883.71
2018-07-13T15:04:54.930Z,101879.98
2018-07-13T15:07:57.084Z,101885.23
2018-07-13T15:10:59.244Z,101884.71
2018-07-13T15:14:01.321Z,101880.04
2018-07-13T15:17:03.428Z,101881.15
2018-07-13T15:20:05.567Z,101881.86
2018-07-13T15:23:07.688Z,101882.17
2018-07-13T15:26:09.811Z,101888.55
2018-07-13T15:29:12.059Z,101880.88
2018-07-13T15:32:14.212Z,101884.44
2018-07-13T15:35:17.192Z,101875.66
2018-07-13T15:38:20.247Z,101870.13
2018-07-13T15:41:22.348Z,101868.10
2018-07-13T15:44:24.348Z,101866.97
2018-07-13T15:47:26.559Z,101865.27
2018-07-13T15:50:29.744Z,101858.47
2018-07-13T15:53:31.875Z,101858.41
2018-07-13T15:56:33.988Z,101854.63
2018-07-13T15:59:37.051Z,101852.20
2018-07-13T16:02:39.146Z,101852.43
2018-07-13T16:05:41.450Z,101843.46
2018-07-13T16:08:43.475Z,101846.28
2018-07-13T16:11:45.703Z,101842.06
2018-07-13T16:14:47.696Z,101844.37
2018-07-13T16:17:49.725Z,101841.65
2018-07-13T16:20:51.885Z,101844.81
2018-07-13T16:23:54.949Z,101838.97
2018-07-13T16:26:57.086Z,101836.04
2018-07-13T16:29:59.224Z,101840.08
2018-07-13T16:33:01.287Z,101831.77
2018-07-13T16:36:03.495Z,101836.38
2018-07-13T16:39:06.227Z,101835.32
2018-07-13T16:42:08.312Z,101832.07
2018-07-13T16:45:10.451Z,101833.44
2018-07-13T16:48:12.498Z,101827.20
2018-07-13T16:51:14.769Z,101829.26
2018-07-13T16:54:17.505Z,101825.14
2018-07-13T16:57:19.716Z,101825.10
2018-07-13T17:00:21.928Z,101825.11
2018-07-13T17:03:24.051Z,101819.04
2018-07-13T17:06:26.411Z,101818.47
2018-07-13T17:09:28.440Z,101816.18
2018-07-13T17:12:31.644Z,101814.94
2018-07-13T17:15:33.752Z,101820.06
2018-07-13T17:18:35.827Z,101824.71
2018-07-13T17:21:37.941Z,101820.07
2018-07-13T17:24:40.101Z,101812.93
2018-07-13T17:27:42.213Z,101818.29
2018-07-13T17:30:44.324Z,101811.52
2018-07-13T17:33:47.615Z,101819.01
2018-07-13T17:36:49.660Z,101812.95
2018-07-13T17:39:51.743Z,101816.42
2018-07-13T17:42:53.860Z,101815.48
2018-07-13T17:45:55.983Z,101814.10
2018-07-13T17:48:58.099Z,101816.55
2018-07-13T17:52:00.279Z,101819.88
2018-07-13T17:55:02.500Z,101817.54
2018-07-13T17:58:04.575Z,101818.76
2018-07-13T18:01:07.016Z,101821.44
2018-07-13T18:04:09.156Z,101819.33
2018-07-13T18:07:11.289Z,101816.75
2018-07-13T18:10:13.374Z,101820.89
2018-07-13T18:13:15.449Z,101825.77
2018-07-13T18:16:18.433Z,101824.17
2018-07-13T18:19:21.511Z,101828.06
2018-07-13T18:22:23.584Z,101832.34
2018-07-13T18:25:25.772Z,101837.86
2018-07-13T18:28:27.841Z,101838.86
2018-07-13T18:31:29.914Z,101843.26
2018-07-13T18:34:32.094Z,101843.75
2018-07-13T18:37:34.222Z,101844.52
2018-07-13T18:40:36.322Z,101846.12
2018-07-13T18:43:38.588Z,101850.54
2018-07-13T18:46:40.876Z,101854.89
2018-07-13T18:49:44.043Z,101855.68
2018-07-13T18:52:46.167Z,101863.31
2018-07-13T18:55:48.234Z,101858.38
2018-07-13T18:58:50.378Z,101856.58
2018-07-13T19:01:52.465Z,101864.68
2018-07-13T19:04:54.491Z,101874.10
2018-07-13T19:07:56.787Z,101874.96
2018-07-13T19:10:58.935Z,101881.05
2018-07-13T19:14:01.113Z,101881.33
2018-07-13T19:17:03.225Z,101882.99
2018-07-13T19:20:05.283Z,101893.39
2018-07-13T19:23:07.261Z,101894.83
2018-07-13T19:26:09.471Z,101892.94
2018-07-13T19:29:11.565Z,101896.96
2018-07-13T19:32:14.646Z,101904.79
2018-07-13T19:35:16.942Z,101910.12
2018-07-13T19:38:19.386Z,101913.74
2018-07-13T19:41:21.689Z,101919.53
2018-07-13T19:44:23.778Z,101925.37
2018-07-13T19:47:26.508Z,101929.40
2018-07-13T19:50:28.601Z,101934.84
2018-07-13T19:53:30.723Z,101939.41
2018-07-13T19:56:32.794Z,101941.84
2018-07-13T19:59:34.896Z,101945.04
2018-07-13T20:02:36.981Z,101951.19
2018-07-13T20:05:39.032Z,101951.60
2018-07-13T20:08:41.345Z,101955.49
2018-07-13T20:11:43.379Z,101953.49
2018-07-13T20:14:45.460Z,101956.99
2018-07-13T20:17:47.552Z,101956.72
2018-07-13T20:20:49.632Z,101957.35
2018-07-13T20:23:51.655Z,101962.89
2018-07-13T20:26:53.765Z,101957.88
2018-07-13T20:29:56.973Z,101962.63
2018-07-13T20:32:58.916Z,101967.59
2018-07-13T20:36:01.025Z,101969.24
2018-07-13T20:39:04.017Z,101979.28
2018-07-13T20:42:05.980Z,101977.21
2018-07-13T20:45:08.131Z,101979.08
2018-07-13T20:48:10.191Z,101981.36
2018-07-13T20:51:12.351Z,101978.92
2018-07-13T20:54:14.445Z,101981.79
2018-07-13T20:57:16.605Z,101983.10
2018-07-13T21:00:18.652Z,101983.48
2018-07-13T21:03:20.764Z,101982.60
2018-07-13T21:06:22.832Z,101984.95
2018-07-13T21:09:25.180Z,101989.64
2018-07-13T21:12:27.446Z,101989.56
2018-07-13T21:15:29.412Z,101985.61
2018-07-13T21:18:32.526Z,101989.70
2018-07-13T21:21:34.564Z,101996.68
2018-07-13T21:24:36.627Z,101999.41
2018-07-13T21:27:38.711Z,102007.74
2018-07-13T21:30:40.704Z,102000.19
2018-07-13T21:33:42.763Z,102002.92
2018-07-13T21:36:44.798Z,102009.79
2018-07-13T21:39:46.928Z,102006.16
2018-07-13T21:42:49.056Z,102007.62
2018-07-13T21:45:51.147Z,102008.09
2018-07-13T21:48:53.325Z,102003.96
2018-07-13T21:51:55.435Z,102004.45
2018-07-13T21:54:57.589Z,101995.34
2018-07-13T21:58:00.944Z,102000.30
2018-07-13T22:01:03.009Z,102001.49
2018-07-13T22:04:05.221Z,102005.56
2018-07-13T22:07:07.243Z,102001.93
2018-07-13T22:10:09.468Z,102006.06
2018-07-13T22:13:11.614Z,102009.47
2018-07-13T22:16:13.671Z,102008.44
2018-07-13T22:19:15.758Z,102009.71
2018-07-13T22:22:17.891Z,102014.67
2018-07-13T22:25:19.992Z,102012.52
2018-07-13T22:28:22.065Z,102015.85
2018-07-13T22:31:24.184Z,102017.10
2018-07-13T22:34:26.307Z,102017.62
2018-07-13T22:37:28.368Z,102020.62
2018-07-13T22:40:31.606Z,102020.80
2018-07-13T22:43:33.604Z,102016.45
2018-07-13T22:46:35.709Z,102018.92
2018-07-13T22:49:37.724Z,102014.88
2018-07-13T22:52:39.852Z,102017.82
2018-07-13T22:55:41.914Z,102016.90
2018-07-13T22:58:43.973Z,102025.06
2018-07-13T23:01:45.993Z,102028.09
2018-07-13T23:04:48.115Z,102022.71
2018-07-13T23:07:50.184Z,102025.75
2018-07-13T23:10:52.262Z,102026.04
2018-07-13T23:13:54.330Z,102027.39
2018-07-13T23:16:56.355Z,102023.25
2018-07-13T23:19:59.382Z,102025.88
2018-07-13T23:23:02.608Z,102026.92
2018-07-13T23:26:04.649Z,102025.49
2018-07-13T23:29:06.735Z,102026.39
2018-07-13T23:32:08.884Z,102017.91
2018-07-13T23:35:10.981Z,102017.81
2018-07-13T23:38:13.048Z,102021.59
2018-07-13T23:41:15.008Z,102021.39
2018-07-13T23:44:17.063Z,102020.74
2018-07-13T23:47:19.330Z,102020.39
2018-07-13T23:50:21.433Z,102022.25
2018-07-13T23:53:23.530Z,102026.90
2018-07-13T23:56:27.607Z,102029.69
2018-07-13T23:59:29.701Z,102028.44
